sensor_id;sensor_type;location;lat;lon;timestamp;P1;durP1;ratioP1;P2;durP2;ratioP2
42420;SDS011;28063;48.140;11.588;2023-06-26T00:02:16;2.33;;;2.13;;
42420;SDS011;28063;48.140;11.588;2023-06-26T00:04:42;2.30;;;2.10;;
42420;SDS011;28063;48.140;11.588;2023-06-26T00:07:08;2.70;;;2.22;;
42420;SDS011;28063;48.140;11.588;2023-06-26T00:09:34;2.50;;;2.30;;
42420;SDS011;28063;48.140;11.588;2023-06-26T00:12:00;2.50;;;2.30;;
42420;SDS011;28063;48.140;11.588;2023-06-26T00:14:26;2.15;;;2.05;;
42420;SDS011;28063;48.140;11.588;2023-06-26T00:16:52;1.95;;;1.85;;
42420;SDS011;28063;48.140;11.588;2023-06-26T00:19:18;2.40;;;2.20;;
42420;SDS011;28063;48.140;11.588;2023-06-26T00:21:43;2.30;;;2.10;;
42420;SDS011;28063;48.140;11.588;2023-06-26T00:24:16;1.90;;;1.80;;
42420;SDS011;28063;48.140;11.588;2023-06-26T00:26:42;1.90;;;1.80;;
42420;SDS011;28063;48.140;11.588;2023-06-26T00:29:11;1.80;;;1.70;;
42420;SDS011;28063;48.140;11.588;2023-06-26T00:31:37;1.80;;;1.70;;
42420;SDS011;28063;48.140;11.588;2023-06-26T00:34:05;2.17;;;1.98;;
42420;SDS011;28063;48.140;11.588;2023-06-26T00:36:31;2.00;;;1.90;;
42420;SDS011;28063;48.140;11.588;2023-06-26T00:38:59;1.92;;;1.77;;
42420;SDS011;28063;48.140;11.588;2023-06-26T00:41:25;2.47;;;2.28;;
42420;SDS011;28063;48.140;11.588;2023-06-26T00:43:50;2.75;;;2.50;;
42420;SDS011;28063;48.140;11.588;2023-06-26T00:46:16;1.98;;;1.77;;
42420;SDS011;28063;48.140;11.588;2023-06-26T00:48:43;1.95;;;1.83;;
42420;SDS011;28063;48.140;11.588;2023-06-26T00:51:10;1.65;;;1.55;;
42420;SDS011;28063;48.140;11.588;2023-06-26T00:53:36;1.92;;;1.80;;
42420;SDS011;28063;48.140;11.588;2023-06-26T00:56:02;2.33;;;2.03;;
42420;SDS011;28063;48.140;11.588;2023-06-26T00:58:28;2.45;;;2.25;;
42420;SDS011;28063;48.140;11.588;2023-06-26T01:00:54;2.58;;;2.38;;
42420;SDS011;28063;48.140;11.588;2023-06-26T01:03:22;2.67;;;2.47;;
42420;SDS011;28063;48.140;11.588;2023-06-26T01:05:49;3.13;;;2.80;;
42420;SDS011;28063;48.140;11.588;2023-06-26T01:08:19;2.80;;;2.60;;
42420;SDS011;28063;48.140;11.588;2023-06-26T01:10:45;2.67;;;2.47;;
42420;SDS011;28063;48.140;11.588;2023-06-26T01:13:14;2.80;;;2.45;;
42420;SDS011;28063;48.140;11.588;2023-06-26T01:15:41;2.50;;;2.28;;
42420;SDS011;28063;48.140;11.588;2023-06-26T01:18:07;2.67;;;2.47;;
42420;SDS011;28063;48.140;11.588;2023-06-26T01:20:36;2.55;;;2.35;;
42420;SDS011;28063;48.140;11.588;2023-06-26T01:28:37;3.42;;;3.10;;
42420;SDS011;28063;48.140;11.588;2023-06-26T01:33:31;2.75;;;2.50;;
42420;SDS011;28063;48.140;11.588;2023-06-26T01:35:57;2.92;;;2.72;;
42420;SDS011;28063;48.140;11.588;2023-06-26T01:38:23;3.17;;;2.88;;
42420;SDS011;28063;48.140;11.588;2023-06-26T01:40:50;3.47;;;3.17;;
42420;SDS011;28063;48.140;11.588;2023-06-26T01:43:31;3.00;;;2.78;;
42420;SDS011;28063;48.140;11.588;2023-06-26T01:46:25;2.70;;;2.50;;
42420;SDS011;28063;48.140;11.588;2023-06-26T01:49:12;3.35;;;3.05;;
42420;SDS011;28063;48.140;11.588;2023-06-26T01:52:05;4.03;;;3.10;;
42420;SDS011;28063;48.140;11.588;2023-06-26T01:54:33;2.97;;;2.67;;
42420;SDS011;28063;48.140;11.588;2023-06-26T01:57:07;4.88;;;3.45;;
42420;SDS011;28063;48.140;11.588;2023-06-26T01:59:34;3.30;;;3.00;;
42420;SDS011;28063;48.140;11.588;2023-06-26T02:02:02;4.13;;;3.83;;
42420;SDS011;28063;48.140;11.588;2023-06-26T02:04:33;4.18;;;3.67;;
42420;SDS011;28063;48.140;11.588;2023-06-26T02:06:59;4.63;;;4.22;;
42420;SDS011;28063;48.140;11.588;2023-06-26T02:09:24;3.72;;;3.40;;
42420;SDS011;28063;48.140;11.588;2023-06-26T02:11:50;4.60;;;3.72;;
42420;SDS011;28063;48.140;11.588;2023-06-26T02:14:16;4.57;;;4.10;;
42420;SDS011;28063;48.140;11.588;2023-06-26T02:16:41;5.95;;;4.68;;
42420;SDS011;28063;48.140;11.588;2023-06-26T02:19:07;5.13;;;4.47;;
42420;SDS011;28063;48.140;11.588;2023-06-26T02:21:33;6.25;;;4.45;;
42420;SDS011;28063;48.140;11.588;2023-06-26T02:23:58;4.65;;;4.00;;
42420;SDS011;28063;48.140;11.588;2023-06-26T02:26:24;6.28;;;5.07;;
42420;SDS011;28063;48.140;11.588;2023-06-26T02:28:49;5.45;;;4.35;;
42420;SDS011;28063;48.140;11.588;2023-06-26T02:31:15;5.25;;;4.18;;
42420;SDS011;28063;48.140;11.588;2023-06-26T02:33:41;4.95;;;4.18;;
42420;SDS011;28063;48.140;11.588;2023-06-26T02:36:07;5.32;;;4.03;;
42420;SDS011;28063;48.140;11.588;2023-06-26T02:38:33;4.82;;;4.10;;
42420;SDS011;28063;48.140;11.588;2023-06-26T02:40:58;4.68;;;4.00;;
42420;SDS011;28063;48.140;11.588;2023-06-26T02:43:24;3.45;;;3.05;;
42420;SDS011;28063;48.140;11.588;2023-06-26T02:45:49;3.83;;;3.33;;
42420;SDS011;28063;48.140;11.588;2023-06-26T02:48:15;4.78;;;3.50;;
42420;SDS011;28063;48.140;11.588;2023-06-26T02:50:41;4.15;;;3.45;;
42420;SDS011;28063;48.140;11.588;2023-06-26T02:53:06;3.58;;;3.10;;
42420;SDS011;28063;48.140;11.588;2023-06-26T02:55:33;3.65;;;2.85;;
42420;SDS011;28063;48.140;11.588;2023-06-26T02:57:59;3.88;;;3.10;;
42420;SDS011;28063;48.140;11.588;2023-06-26T03:00:25;3.30;;;3.00;;
42420;SDS011;28063;48.140;11.588;2023-06-26T03:02:50;3.72;;;3.17;;
42420;SDS011;28063;48.140;11.588;2023-06-26T03:05:16;3.20;;;2.78;;
42420;SDS011;28063;48.140;11.588;2023-06-26T03:07:42;3.15;;;2.83;;
42420;SDS011;28063;48.140;11.588;2023-06-26T03:10:07;3.25;;;2.95;;
42420;SDS011;28063;48.140;11.588;2023-06-26T03:12:33;2.70;;;2.50;;
42420;SDS011;28063;48.140;11.588;2023-06-26T03:14:59;2.60;;;2.40;;
42420;SDS011;28063;48.140;11.588;2023-06-26T03:17:24;2.72;;;2.25;;
42420;SDS011;28063;48.140;11.588;2023-06-26T03:19:50;2.88;;;2.53;;
42420;SDS011;28063;48.140;11.588;2023-06-26T03:22:15;3.00;;;2.70;;
42420;SDS011;28063;48.140;11.588;2023-06-26T03:24:41;2.25;;;2.05;;
42420;SDS011;28063;48.140;11.588;2023-06-26T03:27:08;2.72;;;2.15;;
42420;SDS011;28063;48.140;11.588;2023-06-26T03:29:34;2.65;;;2.22;;
42420;SDS011;28063;48.140;11.588;2023-06-26T03:32:00;2.72;;;2.30;;
42420;SDS011;28063;48.140;11.588;2023-06-26T03:34:26;3.40;;;2.78;;
42420;SDS011;28063;48.140;11.588;2023-06-26T03:36:51;2.28;;;2.10;;
42420;SDS011;28063;48.140;11.588;2023-06-26T03:39:17;2.65;;;2.45;;
42420;SDS011;28063;48.140;11.588;2023-06-26T03:41:42;2.47;;;2.28;;
42420;SDS011;28063;48.140;11.588;2023-06-26T03:44:08;2.50;;;2.30;;
42420;SDS011;28063;48.140;11.588;2023-06-26T03:46:34;2.80;;;2.60;;
42420;SDS011;28063;48.140;11.588;2023-06-26T03:48:59;2.90;;;2.55;;
42420;SDS011;28063;48.140;11.588;2023-06-26T03:51:25;2.70;;;2.30;;
42420;SDS011;28063;48.140;11.588;2023-06-26T03:53:51;2.65;;;2.33;;
42420;SDS011;28063;48.140;11.588;2023-06-26T03:56:16;2.92;;;2.70;;
42420;SDS011;28063;48.140;11.588;2023-06-26T03:58:42;2.90;;;2.60;;
42420;SDS011;28063;48.140;11.588;2023-06-26T04:01:07;2.75;;;2.55;;
42420;SDS011;28063;48.140;11.588;2023-06-26T04:03:33;2.88;;;2.67;;
42420;SDS011;28063;48.140;11.588;2023-06-26T04:05:59;3.40;;;3.10;;
42420;SDS011;28063;48.140;11.588;2023-06-26T04:08:24;3.17;;;2.88;;
42420;SDS011;28063;48.140;11.588;2023-06-26T04:10:51;4.10;;;2.97;;
42420;SDS011;28063;48.140;11.588;2023-06-26T04:13:17;2.80;;;2.60;;
42420;SDS011;28063;48.140;11.588;2023-06-26T04:15:43;3.30;;;3.00;;
42420;SDS011;28063;48.140;11.588;2023-06-26T04:18:09;3.40;;;3.10;;
42420;SDS011;28063;48.140;11.588;2023-06-26T04:20:38;3.55;;;3.25;;
42420;SDS011;28063;48.140;11.588;2023-06-26T04:23:05;4.30;;;3.22;;
42420;SDS011;28063;48.140;11.588;2023-06-26T04:25:31;3.70;;;3.40;;
42420;SDS011;28063;48.140;11.588;2023-06-26T04:27:57;3.78;;;3.42;;
42420;SDS011;28063;48.140;11.588;2023-06-26T04:30:22;3.75;;;3.20;;
42420;SDS011;28063;48.140;11.588;2023-06-26T04:32:48;3.65;;;3.30;;
42420;SDS011;28063;48.140;11.588;2023-06-26T04:35:13;3.47;;;3.17;;
42420;SDS011;28063;48.140;11.588;2023-06-26T04:37:39;3.80;;;3.47;;
42420;SDS011;28063;48.140;11.588;2023-06-26T04:40:05;3.47;;;3.17;;
42420;SDS011;28063;48.140;11.588;2023-06-26T04:42:32;3.80;;;3.40;;
42420;SDS011;28063;48.140;11.588;2023-06-26T04:44:58;3.70;;;3.20;;
42420;SDS011;28063;48.140;11.588;2023-06-26T04:47:23;2.97;;;2.67;;
42420;SDS011;28063;48.140;11.588;2023-06-26T04:49:49;3.35;;;3.05;;
42420;SDS011;28063;48.140;11.588;2023-06-26T04:52:14;3.35;;;3.05;;
42420;SDS011;28063;48.140;11.588;2023-06-26T04:54:40;4.20;;;3.80;;
42420;SDS011;28063;48.140;11.588;2023-06-26T04:57:06;3.95;;;3.55;;
42420;SDS011;28063;48.140;11.588;2023-06-26T04:59:33;4.05;;;3.65;;
42420;SDS011;28063;48.140;11.588;2023-06-26T05:01:59;3.92;;;3.53;;
42420;SDS011;28063;48.140;11.588;2023-06-26T05:04:24;4.32;;;3.92;;
42420;SDS011;28063;48.140;11.588;2023-06-26T05:06:50;4.47;;;4.03;;
42420;SDS011;28063;48.140;11.588;2023-06-26T05:09:16;4.28;;;3.88;;
42420;SDS011;28063;48.140;11.588;2023-06-26T05:11:41;4.25;;;3.85;;
42420;SDS011;28063;48.140;11.588;2023-06-26T05:14:07;4.10;;;3.78;;
42420;SDS011;28063;48.140;11.588;2023-06-26T05:16:34;3.97;;;3.58;;
42420;SDS011;28063;48.140;11.588;2023-06-26T05:19:00;3.97;;;3.65;;
42420;SDS011;28063;48.140;11.588;2023-06-26T05:21:27;3.70;;;3.40;;
42420;SDS011;28063;48.140;11.588;2023-06-26T05:23:54;3.85;;;3.53;;
42420;SDS011;28063;48.140;11.588;2023-06-26T05:26:21;4.05;;;3.65;;
42420;SDS011;28063;48.140;11.588;2023-06-26T05:28:47;3.30;;;3.10;;
42420;SDS011;28063;48.140;11.588;2023-06-26T05:31:14;3.22;;;3.03;;
42420;SDS011;28063;48.140;11.588;2023-06-26T05:33:41;3.60;;;3.40;;
42420;SDS011;28063;48.140;11.588;2023-06-26T05:36:09;3.20;;;3.00;;
42420;SDS011;28063;48.140;11.588;2023-06-26T05:38:35;2.80;;;2.60;;
42420;SDS011;28063;48.140;11.588;2023-06-26T05:41:01;3.45;;;3.15;;
42420;SDS011;28063;48.140;11.588;2023-06-26T05:43:26;2.95;;;2.75;;
42420;SDS011;28063;48.140;11.588;2023-06-26T05:45:53;2.70;;;2.50;;
42420;SDS011;28063;48.140;11.588;2023-06-26T05:48:19;2.50;;;2.40;;
42420;SDS011;28063;48.140;11.588;2023-06-26T05:50:45;2.60;;;2.50;;
42420;SDS011;28063;48.140;11.588;2023-06-26T05:53:10;2.80;;;2.60;;
42420;SDS011;28063;48.140;11.588;2023-06-26T05:55:36;2.35;;;2.15;;
42420;SDS011;28063;48.140;11.588;2023-06-26T05:58:02;2.22;;;2.13;;
42420;SDS011;28063;48.140;11.588;2023-06-26T06:00:29;2.42;;;2.33;;
42420;SDS011;28063;48.140;11.588;2023-06-26T06:02:55;2.10;;;2.00;;
42420;SDS011;28063;48.140;11.588;2023-06-26T06:05:21;2.47;;;2.38;;
42420;SDS011;28063;48.140;11.588;2023-06-26T06:07:47;2.42;;;2.33;;
42420;SDS011;28063;48.140;11.588;2023-06-26T06:10:13;1.98;;;1.88;;
42420;SDS011;28063;48.140;11.588;2023-06-26T06:12:39;2.40;;;2.30;;
42420;SDS011;28063;48.140;11.588;2023-06-26T06:15:05;2.47;;;2.28;;
42420;SDS011;28063;48.140;11.588;2023-06-26T06:17:31;1.85;;;1.83;;
42420;SDS011;28063;48.140;11.588;2023-06-26T06:19:56;2.28;;;2.17;;
42420;SDS011;28063;48.140;11.588;2023-06-26T06:22:22;2.05;;;1.95;;
42420;SDS011;28063;48.140;11.588;2023-06-26T06:24:51;2.20;;;2.10;;
42420;SDS011;28063;48.140;11.588;2023-06-26T06:27:16;2.03;;;1.92;;
42420;SDS011;28063;48.140;11.588;2023-06-26T06:29:42;2.20;;;2.10;;
42420;SDS011;28063;48.140;11.588;2023-06-26T06:32:08;2.45;;;2.35;;
42420;SDS011;28063;48.140;11.588;2023-06-26T06:34:34;2.30;;;2.20;;
42420;SDS011;28063;48.140;11.588;2023-06-26T06:36:59;2.28;;;2.17;;
42420;SDS011;28063;48.140;11.588;2023-06-26T06:39:25;2.05;;;1.95;;
42420;SDS011;28063;48.140;11.588;2023-06-26T06:41:51;2.63;;;2.53;;
42420;SDS011;28063;48.140;11.588;2023-06-26T06:44:16;2.70;;;2.60;;
42420;SDS011;28063;48.140;11.588;2023-06-26T06:46:42;3.13;;;2.92;;
42420;SDS011;28063;48.140;11.588;2023-06-26T06:49:08;3.05;;;2.85;;
42420;SDS011;28063;48.140;11.588;2023-06-26T06:51:34;2.97;;;2.78;;
42420;SDS011;28063;48.140;11.588;2023-06-26T06:53:59;5.80;;;5.30;;
42420;SDS011;28063;48.140;11.588;2023-06-26T06:56:28;5.10;;;4.70;;
42420;SDS011;28063;48.140;11.588;2023-06-26T06:58:54;4.20;;;3.90;;
42420;SDS011;28063;48.140;11.588;2023-06-26T07:01:20;4.70;;;4.40;;
42420;SDS011;28063;48.140;11.588;2023-06-26T07:03:45;6.30;;;5.70;;
42420;SDS011;28063;48.140;11.588;2023-06-26T07:06:11;5.85;;;5.35;;
42420;SDS011;28063;48.140;11.588;2023-06-26T07:08:36;6.20;;;5.70;;
42420;SDS011;28063;48.140;11.588;2023-06-26T07:11:02;6.10;;;5.60;;
42420;SDS011;28063;48.140;11.588;2023-06-26T07:13:28;6.28;;;5.78;;
42420;SDS011;28063;48.140;11.588;2023-06-26T07:15:53;6.60;;;6.00;;
42420;SDS011;28063;48.140;11.588;2023-06-26T07:18:22;6.25;;;5.75;;
42420;SDS011;28063;48.140;11.588;2023-06-26T07:20:48;5.97;;;5.40;;
42420;SDS011;28063;48.140;11.588;2023-06-26T07:23:13;5.47;;;5.07;;
42420;SDS011;28063;48.140;11.588;2023-06-26T07:25:39;5.40;;;4.90;;
42420;SDS011;28063;48.140;11.588;2023-06-26T07:28:09;5.30;;;4.90;;
42420;SDS011;28063;48.140;11.588;2023-06-26T07:30:36;5.75;;;5.25;;
42420;SDS011;28063;48.140;11.588;2023-06-26T07:33:01;5.32;;;4.82;;
42420;SDS011;28063;48.140;11.588;2023-06-26T07:35:27;5.88;;;5.38;;
42420;SDS011;28063;48.140;11.588;2023-06-26T07:37:53;7.95;;;6.22;;
42420;SDS011;28063;48.140;11.588;2023-06-26T07:40:19;6.20;;;5.47;;
42420;SDS011;28063;48.140;11.588;2023-06-26T07:42:45;7.63;;;5.57;;
42420;SDS011;28063;48.140;11.588;2023-06-26T07:45:11;7.18;;;5.97;;
42420;SDS011;28063;48.140;11.588;2023-06-26T07:47:37;5.78;;;5.28;;
42420;SDS011;28063;48.140;11.588;2023-06-26T07:50:04;5.93;;;5.43;;
42420;SDS011;28063;48.140;11.588;2023-06-26T07:52:30;6.38;;;5.78;;
42420;SDS011;28063;48.140;11.588;2023-06-26T07:54:57;5.93;;;5.32;;
42420;SDS011;28063;48.140;11.588;2023-06-26T07:57:23;6.28;;;5.68;;
42420;SDS011;28063;48.140;11.588;2023-06-26T07:59:49;6.03;;;5.53;;
42420;SDS011;28063;48.140;11.588;2023-06-26T08:02:15;5.63;;;5.13;;
42420;SDS011;28063;48.140;11.588;2023-06-26T08:04:41;5.80;;;5.30;;
42420;SDS011;28063;48.140;11.588;2023-06-26T08:07:07;5.82;;;5.32;;
42420;SDS011;28063;48.140;11.588;2023-06-26T08:09:32;6.07;;;5.55;;
42420;SDS011;28063;48.140;11.588;2023-06-26T08:11:59;6.95;;;6.25;;
42420;SDS011;28063;48.140;11.588;2023-06-26T08:14:25;6.28;;;5.68;;
42420;SDS011;28063;48.140;11.588;2023-06-26T08:16:51;6.70;;;6.07;;
42420;SDS011;28063;48.140;11.588;2023-06-26T08:19:17;7.72;;;6.28;;
42420;SDS011;28063;48.140;11.588;2023-06-26T08:21:43;6.60;;;5.97;;
42420;SDS011;28063;48.140;11.588;2023-06-26T08:24:09;8.50;;;6.03;;
42420;SDS011;28063;48.140;11.588;2023-06-26T08:26:36;6.05;;;5.45;;
42420;SDS011;28063;48.140;11.588;2023-06-26T08:29:02;5.88;;;5.20;;
42420;SDS011;28063;48.140;11.588;2023-06-26T08:31:36;6.10;;;5.50;;
42420;SDS011;28063;48.140;11.588;2023-06-26T08:34:03;6.20;;;5.60;;
42420;SDS011;28063;48.140;11.588;2023-06-26T08:36:29;8.82;;;6.90;;
42420;SDS011;28063;48.140;11.588;2023-06-26T08:38:55;7.70;;;6.35;;
42420;SDS011;28063;48.140;11.588;2023-06-26T08:41:21;7.38;;;5.82;;
42420;SDS011;28063;48.140;11.588;2023-06-26T08:43:47;6.47;;;5.72;;
42420;SDS011;28063;48.140;11.588;2023-06-26T08:46:14;7.40;;;6.70;;
42420;SDS011;28063;48.140;11.588;2023-06-26T08:48:40;5.65;;;5.15;;
42420;SDS011;28063;48.140;11.588;2023-06-26T08:51:09;5.97;;;5.43;;
42420;SDS011;28063;48.140;11.588;2023-06-26T08:53:52;6.55;;;5.85;;
42420;SDS011;28063;48.140;11.588;2023-06-26T08:56:20;6.90;;;6.20;;
42420;SDS011;28063;48.140;11.588;2023-06-26T08:58:47;6.38;;;5.40;;
42420;SDS011;28063;48.140;11.588;2023-06-26T09:01:14;6.15;;;5.65;;
42420;SDS011;28063;48.140;11.588;2023-06-26T09:03:40;5.68;;;5.18;;
42420;SDS011;28063;48.140;11.588;2023-06-26T09:06:06;6.13;;;5.60;;
42420;SDS011;28063;48.140;11.588;2023-06-26T09:08:33;6.95;;;5.60;;
42420;SDS011;28063;48.140;11.588;2023-06-26T09:10:59;5.30;;;4.80;;
42420;SDS011;28063;48.140;11.588;2023-06-26T09:13:25;5.63;;;5.07;;
42420;SDS011;28063;48.140;11.588;2023-06-26T09:15:52;5.20;;;4.80;;
42420;SDS011;28063;48.140;11.588;2023-06-26T09:18:20;5.65;;;5.15;;
42420;SDS011;28063;48.140;11.588;2023-06-26T09:20:46;6.65;;;5.82;;
42420;SDS011;28063;48.140;11.588;2023-06-26T09:23:13;6.40;;;5.50;;
42420;SDS011;28063;48.140;11.588;2023-06-26T09:25:39;6.43;;;5.80;;
42420;SDS011;28063;48.140;11.588;2023-06-26T09:28:06;6.47;;;5.88;;
42420;SDS011;28063;48.140;11.588;2023-06-26T09:30:33;6.32;;;5.82;;
42420;SDS011;28063;48.140;11.588;2023-06-26T09:33:15;7.78;;;5.63;;
42420;SDS011;28063;48.140;11.588;2023-06-26T09:38:13;5.50;;;5.00;;
42420;SDS011;28063;48.140;11.588;2023-06-26T09:40:40;6.65;;;5.60;;
42420;SDS011;28063;48.140;11.588;2023-06-26T09:43:06;6.32;;;5.50;;
42420;SDS011;28063;48.140;11.588;2023-06-26T09:45:36;8.18;;;5.70;;
42420;SDS011;28063;48.140;11.588;2023-06-26T09:48:05;4.68;;;4.38;;
42420;SDS011;28063;48.140;11.588;2023-06-26T09:50:33;4.95;;;4.43;;
42420;SDS011;28063;48.140;11.588;2023-06-26T09:53:11;5.00;;;4.53;;
42420;SDS011;28063;48.140;11.588;2023-06-26T09:55:43;5.00;;;4.60;;
42420;SDS011;28063;48.140;11.588;2023-06-26T09:58:10;5.18;;;4.68;;
42420;SDS011;28063;48.140;11.588;2023-06-26T10:00:42;4.95;;;4.50;;
42420;SDS011;28063;48.140;11.588;2023-06-26T10:03:09;6.10;;;4.70;;
42420;SDS011;28063;48.140;11.588;2023-06-26T10:05:36;5.05;;;4.65;;
42420;SDS011;28063;48.140;11.588;2023-06-26T10:08:02;4.50;;;4.07;;
42420;SDS011;28063;48.140;11.588;2023-06-26T10:10:30;5.22;;;4.70;;
42420;SDS011;28063;48.140;11.588;2023-06-26T10:13:08;4.53;;;4.13;;
42420;SDS011;28063;48.140;11.588;2023-06-26T10:15:40;4.28;;;3.95;;
42420;SDS011;28063;48.140;11.588;2023-06-26T10:18:07;4.20;;;3.90;;
42420;SDS011;28063;48.140;11.588;2023-06-26T10:20:34;4.80;;;4.40;;
42420;SDS011;28063;48.140;11.588;2023-06-26T10:23:00;6.38;;;4.78;;
42420;SDS011;28063;48.140;11.588;2023-06-26T10:25:26;4.90;;;4.50;;
42420;SDS011;28063;48.140;11.588;2023-06-26T10:27:55;4.70;;;4.38;;
42420;SDS011;28063;48.140;11.588;2023-06-26T10:30:24;4.03;;;3.72;;
42420;SDS011;28063;48.140;11.588;2023-06-26T10:32:52;4.45;;;4.15;;
42420;SDS011;28063;48.140;11.588;2023-06-26T10:35:18;4.20;;;3.90;;
42420;SDS011;28063;48.140;11.588;2023-06-26T10:37:48;5.20;;;4.80;;
42420;SDS011;28063;48.140;11.588;2023-06-26T10:40:20;5.78;;;5.28;;
42420;SDS011;28063;48.140;11.588;2023-06-26T10:42:47;4.20;;;3.90;;
42420;SDS011;28063;48.140;11.588;2023-06-26T10:47:40;4.65;;;4.22;;
42420;SDS011;28063;48.140;11.588;2023-06-26T10:53:10;5.10;;;4.65;;
42420;SDS011;28063;48.140;11.588;2023-06-26T10:55:42;4.25;;;3.95;;
42420;SDS011;28063;48.140;11.588;2023-06-26T11:03:38;4.28;;;3.88;;
42420;SDS011;28063;48.140;11.588;2023-06-26T11:08:44;4.38;;;3.97;;
42420;SDS011;28063;48.140;11.588;2023-06-26T11:11:10;4.80;;;4.38;;
42420;SDS011;28063;48.140;11.588;2023-06-26T11:13:35;6.30;;;4.53;;
42420;SDS011;28063;48.140;11.588;2023-06-26T11:16:02;4.75;;;4.35;;
42420;SDS011;28063;48.140;11.588;2023-06-26T11:18:28;5.57;;;5.07;;
42420;SDS011;28063;48.140;11.588;2023-06-26T11:20:54;5.28;;;4.20;;
42420;SDS011;28063;48.140;11.588;2023-06-26T11:23:30;5.20;;;4.80;;
42420;SDS011;28063;48.140;11.588;2023-06-26T11:26:12;5.47;;;4.18;;
42420;SDS011;28063;48.140;11.588;2023-06-26T11:29:15;4.90;;;4.45;;
42420;SDS011;28063;48.140;11.588;2023-06-26T11:31:34;6.38;;;4.72;;
42420;SDS011;28063;48.140;11.588;2023-06-26T11:34:03;4.65;;;4.25;;
42420;SDS011;28063;48.140;11.588;2023-06-26T11:36:30;4.70;;;4.40;;
42420;SDS011;28063;48.140;11.588;2023-06-26T11:38:57;5.70;;;5.20;;
42420;SDS011;28063;48.140;11.588;2023-06-26T11:41:26;4.75;;;4.35;;
42420;SDS011;28063;48.140;11.588;2023-06-26T11:43:53;5.22;;;4.82;;
42420;SDS011;28063;48.140;11.588;2023-06-26T11:46:19;5.28;;;4.88;;
42420;SDS011;28063;48.140;11.588;2023-06-26T11:48:46;5.38;;;4.88;;
42420;SDS011;28063;48.140;11.588;2023-06-26T11:51:13;5.93;;;4.90;;
42420;SDS011;28063;48.140;11.588;2023-06-26T11:53:42;4.65;;;4.30;;
42420;SDS011;28063;48.140;11.588;2023-06-26T11:56:12;5.30;;;4.90;;
42420;SDS011;28063;48.140;11.588;2023-06-26T12:01:30;4.80;;;4.40;;
42420;SDS011;28063;48.140;11.588;2023-06-26T12:04:04;4.78;;;4.45;;
42420;SDS011;28063;48.140;11.588;2023-06-26T12:06:35;5.18;;;4.78;;
42420;SDS011;28063;48.140;11.588;2023-06-26T12:09:02;6.28;;;5.68;;
42420;SDS011;28063;48.140;11.588;2023-06-26T12:11:34;6.18;;;5.65;;
42420;SDS011;28063;48.140;11.588;2023-06-26T12:14:01;5.90;;;5.40;;
42420;SDS011;28063;48.140;11.588;2023-06-26T12:16:28;5.60;;;5.13;;
42420;SDS011;28063;48.140;11.588;2023-06-26T12:24:08;5.25;;;4.85;;
42420;SDS011;28063;48.140;11.588;2023-06-26T12:26:35;5.70;;;5.30;;
42420;SDS011;28063;48.140;11.588;2023-06-26T12:29:04;5.45;;;4.95;;
42420;SDS011;28063;48.140;11.588;2023-06-26T12:31:32;7.47;;;5.22;;
42420;SDS011;28063;48.140;11.588;2023-06-26T12:33:58;5.38;;;4.97;;
42420;SDS011;28063;48.140;11.588;2023-06-26T12:36:24;5.55;;;5.15;;
42420;SDS011;28063;48.140;11.588;2023-06-26T12:38:50;6.38;;;5.82;;
42420;SDS011;28063;48.140;11.588;2023-06-26T12:41:17;5.55;;;5.15;;
42420;SDS011;28063;48.140;11.588;2023-06-26T12:43:45;5.55;;;5.07;;
42420;SDS011;28063;48.140;11.588;2023-06-26T12:46:11;5.72;;;5.22;;
42420;SDS011;28063;48.140;11.588;2023-06-26T12:48:39;5.03;;;4.65;;
42420;SDS011;28063;48.140;11.588;2023-06-26T12:51:11;6.05;;;5.10;;
42420;SDS011;28063;48.140;11.588;2023-06-26T12:53:40;5.75;;;5.20;;
42420;SDS011;28063;48.140;11.588;2023-06-26T12:56:07;6.10;;;5.55;;
42420;SDS011;28063;48.140;11.588;2023-06-26T12:58:33;6.25;;;5.63;;
42420;SDS011;28063;48.140;11.588;2023-06-26T13:01:01;5.65;;;5.15;;
42420;SDS011;28063;48.140;11.588;2023-06-26T13:03:30;6.15;;;5.60;;
42420;SDS011;28063;48.140;11.588;2023-06-26T13:05:57;5.88;;;5.38;;
42420;SDS011;28063;48.140;11.588;2023-06-26T13:08:22;5.40;;;5.00;;
42420;SDS011;28063;48.140;11.588;2023-06-26T13:10:48;7.07;;;6.40;;
42420;SDS011;28063;48.140;11.588;2023-06-26T13:13:14;6.38;;;5.85;;
42420;SDS011;28063;48.140;11.588;2023-06-26T13:15:40;6.47;;;5.88;;
42420;SDS011;28063;48.140;11.588;2023-06-26T13:18:06;5.85;;;5.35;;
42420;SDS011;28063;48.140;11.588;2023-06-26T13:20:31;5.32;;;4.90;;
42420;SDS011;28063;48.140;11.588;2023-06-26T13:22:57;6.10;;;5.30;;
42420;SDS011;28063;48.140;11.588;2023-06-26T13:25:22;6.70;;;6.20;;
42420;SDS011;28063;48.140;11.588;2023-06-26T13:27:48;6.32;;;5.72;;
42420;SDS011;28063;48.140;11.588;2023-06-26T13:30:16;6.50;;;5.93;;
42420;SDS011;28063;48.140;11.588;2023-06-26T13:32:42;7.13;;;6.10;;
42420;SDS011;28063;48.140;11.588;2023-06-26T13:35:08;6.00;;;5.35;;
42420;SDS011;28063;48.140;11.588;2023-06-26T13:37:35;6.13;;;5.63;;
42420;SDS011;28063;48.140;11.588;2023-06-26T13:40:01;5.78;;;5.28;;
42420;SDS011;28063;48.140;11.588;2023-06-26T13:42:28;6.57;;;6.07;;
42420;SDS011;28063;48.140;11.588;2023-06-26T13:44:54;7.78;;;6.60;;
42420;SDS011;28063;48.140;11.588;2023-06-26T13:47:20;6.88;;;6.28;;
42420;SDS011;28063;48.140;11.588;2023-06-26T13:49:46;6.50;;;5.90;;
42420;SDS011;28063;48.140;11.588;2023-06-26T13:52:12;6.68;;;6.18;;
42420;SDS011;28063;48.140;11.588;2023-06-26T13:54:37;7.00;;;5.82;;
42420;SDS011;28063;48.140;11.588;2023-06-26T13:57:05;7.50;;;6.53;;
42420;SDS011;28063;48.140;11.588;2023-06-26T13:59:32;6.70;;;6.10;;
42420;SDS011;28063;48.140;11.588;2023-06-26T14:01:58;6.82;;;6.13;;
42420;SDS011;28063;48.140;11.588;2023-06-26T14:04:24;6.25;;;5.70;;
42420;SDS011;28063;48.140;11.588;2023-06-26T14:06:50;6.50;;;5.85;;
42420;SDS011;28063;48.140;11.588;2023-06-26T14:09:16;6.15;;;5.65;;
42420;SDS011;28063;48.140;11.588;2023-06-26T14:11:43;6.68;;;6.07;;
42420;SDS011;28063;48.140;11.588;2023-06-26T14:14:09;6.50;;;5.88;;
42420;SDS011;28063;48.140;11.588;2023-06-26T14:16:34;6.82;;;6.15;;
42420;SDS011;28063;48.140;11.588;2023-06-26T14:19:00;6.47;;;5.88;;
42420;SDS011;28063;48.140;11.588;2023-06-26T14:21:26;5.85;;;5.40;;
42420;SDS011;28063;48.140;11.588;2023-06-26T14:23:53;6.35;;;5.75;;
42420;SDS011;28063;48.140;11.588;2023-06-26T14:26:19;6.82;;;6.22;;
42420;SDS011;28063;48.140;11.588;2023-06-26T14:28:45;6.05;;;5.55;;
42420;SDS011;28063;48.140;11.588;2023-06-26T14:31:11;5.63;;;5.22;;
42420;SDS011;28063;48.140;11.588;2023-06-26T14:33:37;6.32;;;5.70;;
42420;SDS011;28063;48.140;11.588;2023-06-26T14:36:03;5.85;;;5.35;;
42420;SDS011;28063;48.140;11.588;2023-06-26T14:38:29;9.52;;;6.30;;
42420;SDS011;28063;48.140;11.588;2023-06-26T14:40:54;7.00;;;6.40;;
42420;SDS011;28063;48.140;11.588;2023-06-26T14:43:20;7.28;;;6.07;;
42420;SDS011;28063;48.140;11.588;2023-06-26T14:45:46;6.88;;;6.28;;
42420;SDS011;28063;48.140;11.588;2023-06-26T14:48:11;6.80;;;6.20;;
42420;SDS011;28063;48.140;11.588;2023-06-26T14:50:37;6.43;;;5.93;;
42420;SDS011;28063;48.140;11.588;2023-06-26T14:53:03;6.88;;;6.18;;
42420;SDS011;28063;48.140;11.588;2023-06-26T14:55:29;6.60;;;6.10;;
42420;SDS011;28063;48.140;11.588;2023-06-26T14:57:54;6.93;;;6.32;;
42420;SDS011;28063;48.140;11.588;2023-06-26T15:00:20;6.85;;;6.15;;
42420;SDS011;28063;48.140;11.588;2023-06-26T15:02:46;7.82;;;7.13;;
42420;SDS011;28063;48.140;11.588;2023-06-26T15:05:12;7.55;;;6.85;;